Time;durP1;ratioP1;P1;durP2;ratioP2;P2;SDS_P1;SDS_P2;PMS_P1;PMS_P2;Temp;Humidity;BMP_temperature;BMP_pressure;BME280_temperature;BME280_humidity;BME280_pressure;Samples;Min_cycle;Max_cycle;Signal;HPM_P1;HPM_P2
2022/07/04 03:01:59;;;;;;;0.90;0.77;;;23.20;63.40;;;;;;5385659;23;20520;-71
2022/07/04 03:04:26;;;;;;;0.93;0.70;;;23.20;63.70;;;;;;4954826;29;20470;-71
2022/07/04 03:06:53;;;;;;;0.70;0.60;;;23.20;63.80;;;;;;4955728;29;20515;-71
2022/07/04 03:09:19;;;;;;;0.70;0.60;;;23.20;63.30;;;;;;4954935;29;20873;-71
2022/07/04 03:11:46;;;;;;;0.80;0.60;;;23.10;63.70;;;;;;4955196;29;20466;-71
2022/07/04 03:14:13;;;;;;;0.70;0.60;;;23.10;63.80;;;;;;4956635;29;20541;-71
2022/07/04 03:16:40;;;;;;;0.70;0.50;;;23.10;63.90;;;;;;4955211;29;20501;-72
2022/07/04 03:19:08;;;;;;;0.80;0.50;;;23.10;63.90;;;;;;4955165;29;20454;-71
2022/07/04 03:21:34;;;;;;;0.70;0.60;;;23.10;64.10;;;;;;4955166;29;20526;-71
2022/07/04 03:24:01;;;;;;;0.70;0.60;;;23.10;63.70;;;;;;4955082;29;20509;-71
2022/07/04 03:26:29;;;;;;;1.00;0.63;;;23.00;64.00;;;;;;4954844;29;20997;-72
2022/07/04 03:28:56;;;;;;;1.13;0.57;;;23.00;64.60;;;;;;4954821;29;20989;-71
2022/07/04 03:31:23;;;;;;;0.70;0.50;;;23.00;64.40;;;;;;4955015;29;20485;-71
2022/07/04 03:33:51;;;;;;;0.87;0.60;;;22.90;64.70;;;;;;4954663;29;20830;-72
2022/07/04 03:36:19;;;;;;;0.73;0.67;;;22.90;64.70;;;;;;4955035;29;20447;-72
2022/07/04 03:38:46;;;;;;;0.80;0.60;;;22.90;64.50;;;;;;4954996;29;20447;-71
2022/07/04 03:41:13;;;;;;;0.70;0.60;;;22.90;64.10;;;;;;4954907;29;20474;-71
2022/07/04 03:43:40;;;;;;;0.90;0.60;;;22.80;64.80;;;;;;4954972;29;20451;-72
2022/07/04 03:46:07;;;;;;;0.70;0.60;;;22.80;64.70;;;;;;4954636;29;20939;-72
2022/07/04 03:48:34;;;;;;;0.70;0.50;;;22.90;64.60;;;;;;4954573;29;20884;-71
2022/07/04 03:51:00;;;;;;;0.80;0.50;;;22.90;64.50;;;;;;4954820;29;20471;-72
2022/07/04 03:53:28;;;;;;;0.70;0.50;;;22.80;64.30;;;;;;4954856;29;20486;-71
2022/07/04 03:55:55;;;;;;;0.80;0.50;;;22.80;64.70;;;;;;4954736;29;20486;-71
2022/07/04 03:58:21;;;;;;;0.77;0.60;;;22.90;64.40;;;;;;4954845;29;20514;-71
2022/07/04 04:00:48;;;;;;;0.70;0.50;;;22.90;64.60;;;;;;4954589;29;20529;-71
2022/07/04 04:05:59;;;;;;;0.70;0.50;;;22.90;64.40;;;;;;4954860;29;20402;-71
2022/07/04 04:08:25;;;;;;;0.70;0.60;;;22.90;64.50;;;;;;4954741;29;20458;-70
2022/07/04 04:10:53;;;;;;;0.70;0.50;;;22.80;64.60;;;;;;4954358;29;20534;-71
2022/07/04 04:13:20;;;;;;;1.10;0.60;;;22.70;64.60;;;;;;4954661;29;20820;-72
2022/07/04 04:15:47;;;;;;;0.80;0.70;;;22.80;64.70;;;;;;4954303;28;20825;-72
2022/07/04 04:18:14;;;;;;;0.70;0.60;;;22.80;64.80;;;;;;4957358;29;21053;-71
2022/07/04 04:20:40;;;;;;;0.70;0.60;;;22.80;64.90;;;;;;4957741;29;20458;-71
2022/07/04 04:23:07;;;;;;;0.80;0.60;;;22.80;65.20;;;;;;4957681;29;21009;-72
2022/07/04 04:25:34;;;;;;;0.70;0.60;;;22.80;64.80;;;;;;4957692;29;20858;-72
2022/07/04 04:28:02;;;;;;;0.70;0.70;;;22.80;64.60;;;;;;4957958;29;20450;-71
2022/07/04 04:30:29;;;;;;;0.70;0.60;;;22.70;65.00;;;;;;4957572;29;21003;-71
2022/07/04 04:32:55;;;;;;;0.70;0.60;;;22.70;65.10;;;;;;4957833;29;20502;-71
2022/07/04 04:35:22;;;;;;;0.80;0.60;;;22.70;65.30;;;;;;4957728;29;20479;-71
2022/07/04 04:37:49;;;;;;;0.70;0.60;;;22.70;65.60;;;;;;4957719;29;20498;-71
2022/07/04 04:40:16;;;;;;;0.80;0.63;;;22.70;65.40;;;;;;4957701;29;20447;-71
2022/07/04 04:42:43;;;;;;;0.70;0.50;;;22.70;65.30;;;;;;4957290;29;20566;-71
2022/07/04 04:45:11;;;;;;;0.73;0.67;;;22.70;65.30;;;;;;4957617;29;20443;-71
2022/07/04 04:47:38;;;;;;;0.80;0.60;;;22.70;65.60;;;;;;4957571;29;20497;-71
2022/07/04 04:50:05;;;;;;;0.70;0.60;;;22.70;65.50;;;;;;4957495;29;20498;-71
2022/07/04 04:52:32;;;;;;;0.70;0.50;;;22.70;65.70;;;;;;4957472;28;20478;-71
2022/07/04 04:54:59;;;;;;;0.70;0.50;;;22.70;65.60;;;;;;4957345;29;20549;-71
2022/07/04 04:57:25;;;;;;;0.70;0.60;;;22.70;65.70;;;;;;4957381;29;20479;-70
2022/07/04 04:59:52;;;;;;;0.70;0.60;;;22.70;65.50;;;;;;4957384;29;20447;-72
2022/07/04 05:02:20;;;;;;;1.60;0.60;;;22.80;65.60;;;;;;4956967;29;20491;-72
2022/07/04 05:04:47;;;;;;;0.90;0.63;;;22.70;65.40;;;;;;4958102;29;20446;-72
2022/07/04 05:07:13;;;;;;;0.70;0.60;;;22.70;65.40;;;;;;4957230;29;20450;-70
2022/07/04 05:09:40;;;;;;;0.80;0.60;;;22.70;65.00;;;;;;4957186;29;20505;-71
2022/07/04 05:12:07;;;;;;;0.70;0.50;;;22.70;65.30;;;;;;4956770;29;20989;-71
2022/07/04 05:14:34;;;;;;;0.70;0.60;;;22.70;65.30;;;;;;4957570;29;20553;-72
2022/07/04 05:17:01;;;;;;;1.53;0.60;;;22.70;65.30;;;;;;4957034;29;20446;-72
2022/07/04 05:19:29;;;;;;;0.70;0.50;;;22.70;65.30;;;;;;4957086;28;20451;-71
2022/07/04 05:21:56;;;;;;;0.63;0.50;;;22.70;65.30;;;;;;4956878;29;20470;-71
2022/07/04 05:24:22;;;;;;;0.70;0.60;;;22.70;65.40;;;;;;4956881;29;20492;-70
2022/07/04 05:26:49;;;;;;;0.70;0.60;;;22.70;65.20;;;;;;4956783;28;20450;-71
2022/07/04 05:29:16;;;;;;;0.70;0.63;;;22.80;65.70;;;;;;4956481;29;20811;-71
2022/07/04 05:31:43;;;;;;;0.80;0.60;;;22.80;65.00;;;;;;4956742;28;20512;-72
2022/07/04 05:34:10;;;;;;;0.90;0.70;;;22.80;64.90;;;;;;4956694;29;20506;-71
2022/07/04 05:36:38;;;;;;;0.70;0.60;;;22.80;64.90;;;;;;4956506;29;20482;-70
2022/07/04 05:39:04;;;;;;;0.80;0.60;;;22.80;65.00;;;;;;4956541;29;20625;-70
2022/07/04 05:41:31;;;;;;;0.73;0.60;;;22.90;64.60;;;;;;4956482;29;20467;-70
2022/07/04 05:43:57;;;;;;;0.70;0.60;;;22.90;64.40;;;;;;4956506;29;20450;-70
2022/07/04 05:46:24;;;;;;;0.90;0.60;;;22.90;64.20;;;;;;4956498;29;20501;-70
2022/07/04 05:48:51;;;;;;;0.70;0.50;;;23.00;64.50;;;;;;4956398;29;20454;-70
2022/07/04 05:51:17;;;;;;;0.70;0.60;;;23.10;64.40;;;;;;4956244;29;20549;-70
2022/07/04 05:53:45;;;;;;;0.70;0.50;;;23.30;64.00;;;;;;4956343;29;20509;-70
2022/07/04 05:56:12;;;;;;;0.70;0.50;;;23.40;63.60;;;;;;4956212;29;20479;-70
2022/07/04 05:58:40;;;;;;;0.80;0.70;;;23.50;63.20;;;;;;4956238;29;20458;-70
2022/07/04 06:01:07;;;;;;;0.70;0.60;;;23.70;63.20;;;;;;4955917;29;20495;-70
2022/07/04 06:03:36;;;;;;;0.80;0.60;;;23.80;62.50;;;;;;4956140;29;20435;-70
2022/07/04 06:06:03;;;;;;;0.87;0.60;;;23.90;62.80;;;;;;4956136;29;20545;-70
2022/07/04 06:08:30;;;;;;;0.70;0.60;;;24.00;61.40;;;;;;4956023;29;20446;-70
2022/07/04 06:10:58;;;;;;;0.90;0.63;;;24.00;61.30;;;;;;4955883;29;20470;-70
2022/07/04 06:13:25;;;;;;;1.00;0.70;;;24.00;61.50;;;;;;4955724;29;20453;-70
2022/07/04 06:15:51;;;;;;;0.70;0.50;;;24.20;62.10;;;;;;4955877;29;20852;-69
2022/07/04 06:18:18;;;;;;;0.80;0.60;;;24.10;61.80;;;;;;4955604;29;20866;-69
2022/07/04 06:20:45;;;;;;;0.70;0.60;;;24.20;62.40;;;;;;4955789;29;20841;-70
2022/07/04 06:23:11;;;;;;;0.70;0.57;;;24.30;61.00;;;;;;4955528;29;20874;-70
2022/07/04 06:25:38;;;;;;;0.70;0.60;;;24.40;60.70;;;;;;4955494;29;20938;-70
2022/07/04 06:28:06;;;;;;;0.80;0.70;;;24.40;60.70;;;;;;4955712;29;20450;-70
2022/07/04 06:30:33;;;;;;;0.70;0.60;;;24.40;60.80;;;;;;4955619;29;20451;-70
2022/07/04 06:33:00;;;;;;;0.73;0.60;;;24.50;61.30;;;;;;4955625;29;20451;-70
2022/07/04 06:35:51;;;;;;;0.80;0.60;;;24.60;60.70;;;;;;4955567;29;20626;-71
2022/07/04 06:38:19;;;;;;;0.70;0.50;;;24.70;60.80;;;;;;4955639;29;20435;-71
2022/07/04 06:40:47;;;;;;;1.20;0.60;;;24.90;61.10;;;;;;4954742;29;20471;-71
2022/07/04 06:43:15;;;;;;;0.70;0.60;;;25.00;59.90;;;;;;4955283;29;20949;-71
2022/07/04 06:45:41;;;;;;;0.83;0.60;;;25.10;59.70;;;;;;4955547;29;20501;-71
2022/07/04 06:48:08;;;;;;;0.70;0.50;;;25.20;59.60;;;;;;4955463;29;20455;-71
2022/07/04 06:50:35;;;;;;;0.80;0.60;;;25.30;58.50;;;;;;4955425;29;20513;-71
2022/07/04 06:53:03;;;;;;;0.70;0.60;;;25.30;58.70;;;;;;4955359;29;20451;-71
2022/07/04 06:55:30;;;;;;;0.80;0.60;;;25.40;59.30;;;;;;4955008;29;21072;-70
2022/07/04 06:57:57;;;;;;;0.80;0.60;;;25.50;60.00;;;;;;4955046;29;20459;-72
2022/07/04 07:00:26;;;;;;;0.80;0.60;;;25.50;58.40;;;;;;4955268;29;20462;-69
2022/07/04 07:02:52;;;;;;;0.70;0.60;;;25.50;58.80;;;;;;4954974;29;20459;-71
2022/07/04 07:05:19;;;;;;;0.60;0.50;;;25.40;58.70;;;;;;4955302;29;20455;-71
2022/07/04 07:07:46;;;;;;;0.93;0.70;;;25.30;59.00;;;;;;4955272;29;20451;-71
2022/07/04 07:10:12;;;;;;;0.70;0.60;;;25.30;60.00;;;;;;4955220;29;20801;-71
2022/07/04 07:12:39;;;;;;;0.70;0.50;;;25.40;59.20;;;;;;4954868;29;21053;-71
2022/07/04 07:15:06;;;;;;;0.70;0.60;;;25.30;60.20;;;;;;4954851;29;21014;-70
2022/07/04 07:17:34;;;;;;;0.70;0.60;;;25.40;59.80;;;;;;4955098;29;20463;-71
2022/07/04 07:20:01;;;;;;;0.87;0.60;;;25.40;59.80;;;;;;4955090;29;20447;-70
2022/07/04 07:22:28;;;;;;;0.70;0.60;;;25.20;60.50;;;;;;4955020;29;20474;-70
2022/07/04 07:24:54;;;;;;;0.70;0.60;;;25.10;60.30;;;;;;4955021;29;20455;-71
2022/07/04 07:27:21;;;;;;;0.70;0.50;;;24.70;61.10;;;;;;4955004;29;20502;-71
2022/07/04 07:29:48;;;;;;;0.70;0.60;;;24.80;61.20;;;;;;4955019;29;20455;-71
2022/07/04 07:32:15;;;;;;;0.90;0.60;;;24.90;60.90;;;;;;4954957;29;20471;-70
2022/07/04 07:34:43;;;;;;;0.70;0.60;;;24.80;61.70;;;;;;4955025;29;20455;-70
2022/07/04 07:37:10;;;;;;;0.70;0.60;;;24.70;61.40;;;;;;4954896;29;20493;-70
2022/07/04 07:39:36;;;;;;;0.80;0.60;;;24.70;61.30;;;;;;4954950;29;20450;-71
2022/07/04 07:42:03;;;;;;;0.90;0.60;;;24.40;61.80;;;;;;4954852;29;20529;-70
2022/07/04 07:44:30;;;;;;;0.97;0.60;;;24.10;62.70;;;;;;4954992;28;20811;-70
2022/07/04 07:46:57;;;;;;;0.70;0.60;;;23.80;63.70;;;;;;4954614;29;20502;-71
2022/07/04 07:49:24;;;;;;;0.90;0.60;;;24.00;63.60;;;;;;4954921;29;20506;-71
2022/07/04 07:51:51;;;;;;;0.70;0.60;;;24.10;63.80;;;;;;4957800;28;20580;-71
2022/07/04 07:54:18;;;;;;;0.83;0.70;;;24.30;63.20;;;;;;4958416;29;20947;-71
2022/07/04 07:56:45;;;;;;;0.70;0.60;;;24.00;62.80;;;;;;4958440;29;20486;-71
2022/07/04 07:59:12;;;;;;;0.70;0.60;;;23.90;64.20;;;;;;4958365;29;21034;-71
2022/07/04 08:01:38;;;;;;;0.70;0.60;;;23.70;63.00;;;;;;4957931;29;20907;-71
2022/07/04 08:06:49;;;;;;;1.13;0.50;;;23.60;64.60;;;;;;4958582;29;20411;-70
2022/07/04 08:09:17;;;;;;;1.37;0.60;;;23.50;64.10;;;;;;4958381;29;20455;-71
2022/07/04 08:11:44;;;;;;;0.70;0.70;;;23.60;64.30;;;;;;4958294;29;20470;-71
2022/07/04 08:14:11;;;;;;;0.80;0.63;;;23.80;64.20;;;;;;4958189;29;20447;-71
2022/07/04 08:16:38;;;;;;;0.70;0.60;;;23.80;64.30;;;;;;4958230;29;20523;-71
2022/07/04 08:19:04;;;;;;;0.80;0.60;;;24.10;63.60;;;;;;4958305;29;20511;-71
2022/07/04 08:21:31;;;;;;;0.70;0.60;;;24.40;62.50;;;;;;4957730;29;20892;-70
2022/07/04 08:23:58;;;;;;;0.70;0.60;;;24.50;62.80;;;;;;4958093;29;20447;-71
2022/07/04 08:26:26;;;;;;;0.70;0.70;;;24.30;63.10;;;;;;4957924;29;20564;-70
2022/07/04 08:28:55;;;;;;;0.70;0.60;;;23.80;63.40;;;;;;4958073;29;20451;-71
2022/07/04 08:31:22;;;;;;;0.70;0.60;;;23.90;62.80;;;;;;4957881;29;20475;-71
2022/07/04 08:33:48;;;;;;;0.70;0.70;;;23.90;62.90;;;;;;4957956;29;20455;-70
2022/07/04 08:36:15;;;;;;;0.70;0.60;;;24.10;63.30;;;;;;4957686;29;20482;-70
2022/07/04 08:38:42;;;;;;;0.90;0.63;;;24.20;62.70;;;;;;4957767;29;20450;-70
2022/07/04 08:41:08;;;;;;;0.70;0.70;;;24.50;62.40;;;;;;4957696;29;20479;-71
2022/07/04 08:43:36;;;;;;;0.80;0.60;;;24.50;62.10;;;;;;4957667;29;20451;-70
2022/07/04 08:46:05;;;;;;;0.80;0.50;;;24.70;62.60;;;;;;4957652;29;20447;-71
2022/07/04 08:48:33;;;;;;;0.70;0.60;;;24.50;62.90;;;;;;4957595;29;20527;-71
2022/07/04 08:51:05;;;;;;;0.80;0.60;;;24.60;63.50;;;;;;4957137;29;20905;-71
2022/07/04 08:53:33;;;;;;;0.80;0.60;;;24.70;63.10;;;;;;4957470;29;20494;-71
2022/07/04 08:58:48;;;;;;;0.70;0.60;;;24.20;64.30;;;;;;4957558;29;20407;-70
2022/07/04 09:01:15;;;;;;;0.90;0.60;;;24.40;63.70;;;;;;4956941;29;20491;-70
2022/07/04 09:03:43;;;;;;;0.80;0.60;;;24.80;62.80;;;;;;4956496;28;20450;-71
2022/07/04 09:06:10;;;;;;;0.93;0.87;;;24.90;63.10;;;;;;4957474;29;20448;-71
2022/07/04 09:08:38;;;;;;;0.70;0.60;;;25.20;61.70;;;;;;4957223;29;20459;-71
2022/07/04 09:11:04;;;;;;;0.80;0.70;;;25.40;61.20;;;;;;4957114;29;20505;-72
2022/07/04 09:13:37;;;;;;;0.70;0.60;;;25.60;61.10;;;;;;4958156;29;20454;-70
2022/07/04 09:16:06;;;;;;;0.70;0.60;;;25.30;60.80;;;;;;4956814;29;20910;-71
2022/07/04 09:18:35;;;;;;;0.60;0.50;;;25.40;61.80;;;;;;4956864;28;20880;-71
2022/07/04 09:21:04;;;;;;;0.90;0.60;;;25.60;61.20;;;;;;4957022;29;20463;-71
2022/07/04 09:23:32;;;;;;;0.70;0.60;;;25.50;60.80;;;;;;4956955;29;20456;-71
2022/07/04 09:26:14;;;;;;;0.70;0.60;;;25.00;62.40;;;;;;4957054;29;20817;-72
2022/07/04 09:28:42;;;;;;;0.93;0.60;;;24.90;64.40;;;;;;4956881;29;20901;-72
2022/07/04 09:31:18;;;;;;;0.80;0.60;;;25.10;64.10;;;;;;4956781;29;20557;-71
2022/07/04 09:33:49;;;;;;;0.70;0.60;;;25.60;63.40;;;;;;4956782;29;20875;-71
2022/07/04 09:36:17;;;;;;;0.80;0.70;;;25.80;62.20;;;;;;4957440;28;20490;-71
2022/07/04 09:38:44;;;;;;;0.70;0.60;;;26.20;62.50;;;;;;4956602;29;20506;-71
2022/07/04 09:41:29;;;;;;;0.70;0.60;;;26.50;59.60;;;;;;4956478;29;20474;-72
2022/07/04 09:44:04;;;;;;;0.70;0.53;;;26.80;58.40;;;;;;4957470;29;20439;-72
2022/07/04 09:46:33;;;;;;;0.70;0.60;;;27.30;57.60;;;;;;4956254;29;20923;-71
2022/07/04 09:48:59;;;;;;;0.70;0.60;;;27.60;56.30;;;;;;4956301;29;20845;-71
2022/07/04 09:51:40;;;;;;;0.70;0.60;;;27.30;58.70;;;;;;4956365;29;20481;-71
2022/07/04 09:54:19;;;;;;;0.70;0.60;;;27.10;58.70;;;;;;4956010;29;20465;-71
2022/07/04 09:56:48;;;;;;;0.90;0.70;;;26.50;60.00;;;;;;4956065;29;20997;-71
2022/07/04 09:59:15;;;;;;;0.70;0.70;;;26.30;59.40;;;;;;4956376;29;20521;-71
2022/07/04 10:01:43;;;;;;;0.93;0.60;;;26.00;61.30;;;;;;4955863;29;20891;-71
2022/07/04 10:04:11;;;;;;;0.97;0.80;;;26.30;59.40;;;;;;4956107;29;20856;-71
2022/07/04 10:06:39;;;;;;;0.70;0.60;;;26.30;59.70;;;;;;4956363;29;20888;-71
2022/07/04 10:09:10;;;;;;;0.70;0.60;;;26.40;58.70;;;;;;4955919;29;20451;-71
2022/07/04 10:11:38;;;;;;;1.10;0.60;;;26.60;60.40;;;;;;4956131;29;20475;-70
2022/07/04 10:14:07;;;;;;;0.80;0.60;;;26.90;59.30;;;;;;4956166;28;20537;-72
2022/07/04 10:16:34;;;;;;;1.13;0.70;;;27.20;56.70;;;;;;4956015;29;20573;-71
2022/07/04 10:19:03;;;;;;;0.70;0.67;;;27.30;55.80;;;;;;4956083;29;20459;-71
2022/07/04 10:21:31;;;;;;;1.10;0.70;;;27.30;57.30;;;;;;4955910;29;20517;-71
2022/07/04 10:23:57;;;;;;;0.70;0.63;;;27.40;56.70;;;;;;4955954;29;20482;-75
2022/07/04 10:26:24;;;;;;;0.80;0.70;;;27.60;56.00;;;;;;4955936;29;20505;-70
2022/07/04 10:28:52;;;;;;;0.70;0.60;;;27.60;55.90;;;;;;4955876;29;20447;-70
2022/07/04 10:31:21;;;;;;;0.80;0.63;;;27.60;55.30;;;;;;4955799;29;20901;-71
2022/07/04 10:33:48;;;;;;;0.70;0.67;;;27.70;54.20;;;;;;4955597;29;20946;-70
2022/07/04 10:36:17;;;;;;;1.23;0.70;;;27.30;55.60;;;;;;4955289;29;21016;-72
2022/07/04 10:38:51;;;;;;;1.23;0.60;;;27.10;56.00;;;;;;4955466;29;20928;-73
2022/07/04 10:41:21;;;;;;;0.70;0.60;;;27.50;55.10;;;;;;4955667;29;20482;-72
2022/07/04 10:43:53;;;;;;;1.40;0.60;;;27.30;54.50;;;;;;4955803;29;20431;-72
2022/07/04 10:46:24;;;;;;;0.80;0.70;;;26.40;55.60;;;;;;4955656;29;20450;-73
2022/07/04 10:48:52;;;;;;;0.70;0.60;;;25.90;58.50;;;;;;4955780;29;20450;-72
2022/07/04 10:51:37;;;;;;;0.70;0.67;;;26.10;58.10;;;;;;4955517;28;20471;-71
2022/07/04 10:54:06;;;;;;;0.80;0.60;;;26.40;57.60;;;;;;4955554;28;20542;-73
2022/07/04 10:56:41;;;;;;;0.70;0.50;;;26.50;56.50;;;;;;4955104;29;20486;-74
2022/07/04 10:59:13;;;;;;;0.70;0.70;;;26.80;57.00;;;;;;4955548;29;20430;-74
2022/07/04 11:01:45;;;;;;;0.70;0.60;;;27.30;57.00;;;;;;4955019;29;20542;-76
2022/07/04 11:04:11;;;;;;;0.70;0.60;;;27.70;54.70;;;;;;4955808;29;20854;-76
2022/07/04 11:06:55;;;;;;;0.80;0.60;;;27.60;54.00;;;;;;4955230;29;20459;-76
2022/07/04 11:09:23;;;;;;;0.80;0.70;;;27.70;54.70;;;;;;4955299;29;20529;-75
2022/07/04 11:11:57;;;;;;;0.70;0.60;;;27.60;54.60;;;;;;4955232;29;20475;-75
2022/07/04 11:14:38;;;;;;;0.70;0.60;;;27.70;54.40;;;;;;4954900;29;20842;-75
2022/07/04 11:17:06;;;;;;;0.70;0.60;;;27.90;54.70;;;;;;4955094;29;20491;-74
2022/07/04 11:19:33;;;;;;;1.33;0.60;;;28.30;53.90;;;;;;4954983;29;20494;-75
2022/07/04 11:22:01;;;;;;;0.70;0.70;;;28.30;53.00;;;;;;4955027;29;20522;-75
2022/07/04 11:24:29;;;;;;;0.70;0.70;;;28.00;53.40;;;;;;4954872;29;21022;-74
2022/07/04 11:26:55;;;;;;;0.70;0.50;;;27.90;54.30;;;;;;4958014;28;20450;-75
2022/07/04 11:29:22;;;;;;;1.27;0.70;;;27.60;55.10;;;;;;4959013;28;20501;-74
2022/07/04 11:31:52;;;;;;;0.70;0.60;;;27.40;55.40;;;;;;4958835;29;20463;-75
2022/07/04 11:34:20;;;;;;;0.70;0.60;;;27.40;56.10;;;;;;4958881;29;20461;-73
2022/07/04 11:36:49;;;;;;;1.37;0.60;;;27.10;54.80;;;;;;4958964;29;20509;-74
2022/07/04 11:39:20;;;;;;;0.90;0.60;;;26.90;56.20;;;;;;4958841;28;20446;-75
2022/07/04 11:47:21;;;;;;;0.70;0.60;;;27.30;56.30;;;;;;4958696;29;20411;-74
2022/07/04 11:49:50;;;;;;;0.80;0.60;;;27.10;55.20;;;;;;4958660;29;20451;-75
2022/07/04 11:52:19;;;;;;;0.70;0.50;;;27.20;55.30;;;;;;4958184;29;20462;-75
2022/07/04 11:54:49;;;;;;;1.10;0.60;;;27.30;55.40;;;;;;4958494;29;20450;-74
2022/07/04 11:57:18;;;;;;;0.70;0.60;;;27.60;55.30;;;;;;4958425;29;20530;-76
2022/07/04 11:59:53;;;;;;;0.70;0.50;;;27.50;55.10;;;;;;4958420;29;20879;-75
2022/07/04 12:02:20;;;;;;;0.70;0.60;;;27.70;53.80;;;;;;4957979;29;20494;-76
2022/07/04 12:04:47;;;;;;;1.20;0.67;;;27.70;54.80;;;;;;4958335;29;20451;-75
2022/07/04 12:07:15;;;;;;;0.70;0.60;;;28.00;56.00;;;;;;4958514;29;20447;-75
2022/07/04 12:09:43;;;;;;;2.40;0.60;;;28.20;54.20;;;;;;4958358;28;20502;-75
2022/07/04 12:12:12;;;;;;;0.70;0.60;;;28.10;53.50;;;;;;4958130;29;20471;-74
2022/07/04 12:14:39;;;;;;;0.70;0.53;;;28.10;54.10;;;;;;4957824;29;20451;-75
2022/07/04 12:17:15;;;;;;;0.90;0.60;;;27.70;53.50;;;;;;4958036;29;20859;-74
2022/07/04 12:19:52;;;;;;;1.37;0.50;;;27.10;54.50;;;;;;4958083;29;20450;-74
2022/07/04 12:22:35;;;;;;;0.70;0.70;;;26.60;56.40;;;;;;4958038;29;20854;-75
2022/07/04 12:25:04;;;;;;;0.80;0.60;;;27.00;57.80;;;;;;4958048;29;20439;-74
2022/07/04 12:27:32;;;;;;;0.70;0.60;;;27.40;55.60;;;;;;4957955;29;20533;-75
2022/07/04 12:30:00;;;;;;;0.70;0.60;;;27.70;56.10;;;;;;4957849;29;20454;-75
2022/07/04 12:32:45;;;;;;;0.70;0.60;;;28.10;55.40;;;;;;4957700;29;20525;-74
2022/07/04 12:35:32;;;;;;;0.70;0.60;;;28.60;54.10;;;;;;4957936;28;20870;-74
2022/07/04 12:38:03;;;;;;;0.90;0.70;;;28.70;51.10;;;;;;4956765;28;20482;-75
2022/07/04 12:40:30;;;;;;;0.70;0.60;;;28.40;52.00;;;;;;4957710;29;20509;-75
2022/07/04 12:42:58;;;;;;;0.70;0.60;;;28.70;53.60;;;;;;4957735;29;20443;-73
2022/07/04 12:45:25;;;;;;;0.77;0.63;;;28.90;54.50;;;;;;4957402;29;20938;-75
2022/07/04 12:47:54;;;;;;;0.70;0.70;;;29.20;52.60;;;;;;4957618;29;20501;-74
2022/07/04 12:50:26;;;;;;;0.73;0.67;;;29.30;53.30;;;;;;4957532;29;20447;-74
2022/07/04 12:52:53;;;;;;;0.70;0.70;;;29.20;51.70;;;;;;4957592;29;20522;-74
2022/07/04 12:55:20;;;;;;;0.80;0.60;;;29.00;53.20;;;;;;4957482;29;20447;-75
2022/07/04 12:57:46;;;;;;;0.70;0.50;;;29.10;52.90;;;;;;4957366;29;20478;-75
2022/07/04 13:00:15;;;;;;;0.70;0.63;;;29.40;52.30;;;;;;4957365;29;20455;-74
2022/07/04 13:02:41;;;;;;;0.70;0.60;;;29.80;53.10;;;;;;4956917;29;20483;-74
2022/07/04 13:05:09;;;;;;;0.80;0.60;;;30.10;51.50;;;;;;4957366;29;20459;-74
2022/07/04 13:07:35;;;;;;;0.70;0.60;;;30.20;50.00;;;;;;4957222;29;20502;-76
2022/07/04 13:10:02;;;;;;;0.80;0.63;;;30.30;50.40;;;;;;4957251;29;20514;-75
2022/07/04 13:12:29;;;;;;;0.70;0.60;;;30.40;50.60;;;;;;4956858;29;20999;-76
2022/07/04 13:14:57;;;;;;;0.70;0.60;;;30.30;49.80;;;;;;4956777;29;20942;-76
2022/07/04 13:17:26;;;;;;;0.83;0.70;;;30.30;51.90;;;;;;4956987;29;20498;-75
2022/07/04 13:19:53;;;;;;;2.50;0.70;;;29.90;50.30;;;;;;4957157;29;20490;-75
2022/07/04 13:22:21;;;;;;;0.70;0.60;;;29.90;50.80;;;;;;4956689;29;20534;-75
2022/07/04 13:24:48;;;;;;;1.43;0.70;;;29.90;51.80;;;;;;4956972;29;20446;-76
2022/07/04 13:27:14;;;;;;;0.70;0.60;;;30.10;50.80;;;;;;4956949;29;20443;-75
2022/07/04 13:29:41;;;;;;;0.80;0.60;;;29.80;50.40;;;;;;4956936;29;20454;-76
2022/07/04 13:32:08;;;;;;;0.70;0.60;;;29.50;52.00;;;;;;4956792;29;20467;-76
2022/07/04 13:34:37;;;;;;;0.70;0.60;;;29.40;52.10;;;;;;4956865;29;20455;-75
2022/07/04 13:37:04;;;;;;;0.70;0.60;;;29.40;52.10;;;;;;4956688;29;20447;-76
2022/07/04 13:39:31;;;;;;;0.70;0.50;;;29.40;51.40;;;;;;4956734;29;20479;-75
2022/07/04 13:41:58;;;;;;;0.70;0.60;;;29.50;51.00;;;;;;4956628;29;20829;-74
2022/07/04 13:44:25;;;;;;;1.20;0.80;;;29.70;51.00;;;;;;4956695;29;20451;-74
2022/07/04 13:46:51;;;;;;;0.70;0.70;;;29.70;51.50;;;;;;4956424;29;20457;-74
2022/07/04 13:49:18;;;;;;;0.90;0.60;;;29.40;50.30;;;;;;4956361;28;20443;-74
2022/07/04 13:51:46;;;;;;;0.70;0.67;;;29.10;51.90;;;;;;4956472;29;20526;-73
2022/07/04 13:54:13;;;;;;;0.77;0.70;;;29.40;51.70;;;;;;4956299;29;20477;-74
2022/07/04 13:56:40;;;;;;;0.70;0.53;;;29.80;51.10;;;;;;4956544;29;20451;-74
2022/07/04 13:59:07;;;;;;;0.70;0.60;;;29.70;50.20;;;;;;4956375;29;20537;-74
2022/07/04 14:01:34;;;;;;;0.70;0.70;;;29.60;51.40;;;;;;4956434;29;20479;-74
2022/07/04 14:04:00;;;;;;;0.70;0.60;;;29.30;50.80;;;;;;4956208;29;20887;-74
2022/07/04 14:06:27;;;;;;;2.40;0.60;;;28.90;51.50;;;;;;4956159;29;20463;-74
2022/07/04 14:08:55;;;;;;;0.70;0.57;;;28.60;52.00;;;;;;4956186;29;20447;-74
2022/07/04 14:11:22;;;;;;;0.70;0.60;;;28.30;52.10;;;;;;4956000;29;20526;-75
2022/07/04 14:13:50;;;;;;;0.70;0.60;;;27.90;53.40;;;;;;4956126;29;20894;-74
2022/07/04 14:16:17;;;;;;;0.70;0.50;;;27.90;54.10;;;;;;4956259;28;20934;-74
2022/07/04 14:18:43;;;;;;;0.77;0.60;;;28.00;54.50;;;;;;4955882;29;20487;-74
2022/07/04 14:21:10;;;;;;;1.17;0.60;;;27.90;53.10;;;;;;4955844;29;20470;-74
2022/07/04 14:23:45;;;;;;;0.70;0.60;;;27.70;53.50;;;;;;4955802;29;20474;-74
2022/07/04 14:26:14;;;;;;;0.70;0.60;;;27.60;55.50;;;;;;4955864;29;20438;-73
2022/07/04 14:28:42;;;;;;;0.80;0.60;;;27.70;55.80;;;;;;4956320;29;20443;-74
2022/07/04 14:31:09;;;;;;;0.70;0.50;;;27.70;53.90;;;;;;4955677;29;20475;-73
2022/07/04 14:33:35;;;;;;;0.70;0.50;;;28.00;56.20;;;;;;4955609;29;20506;-74
2022/07/04 14:36:04;;;;;;;0.80;0.60;;;28.50;54.50;;;;;;4955692;29;20502;-74
2022/07/04 14:38:30;;;;;;;0.70;0.60;;;28.50;54.00;;;;;;4955311;28;21068;-74
2022/07/04 14:41:09;;;;;;;0.70;0.60;;;28.50;54.00;;;;;;4955555;29;20466;-74
2022/07/04 14:43:38;;;;;;;0.70;0.60;;;28.30;55.30;;;;;;4955384;29;20817;-74
2022/07/04 14:46:05;;;;;;;0.90;0.70;;;28.30;54.70;;;;;;4955542;29;20538;-74
2022/07/04 14:48:31;;;;;;;0.83;0.70;;;28.70;54.50;;;;;;4955537;29;20450;-74
2022/07/04 14:50:58;;;;;;;0.93;0.67;;;29.00;53.40;;;;;;4955344;29;20530;-75
2022/07/04 14:53:25;;;;;;;0.80;0.60;;;29.20;53.60;;;;;;4955406;29;20450;-74
2022/07/04 14:55:52;;;;;;;1.13;0.70;;;29.50;51.80;;;;;;4955382;29;20508;-75
2022/07/04 14:58:18;;;;;;;0.80;0.60;;;29.70;51.70;;;;;;4955273;29;20487;-74
2022/07/04 15:00:46;;;;;;;0.70;0.50;;;29.80;51.60;;;;;;4954276;28;20971;-75
2022/07/04 15:03:13;;;;;;;0.70;0.60;;;30.10;51.70;;;;;;4955297;29;20431;-74
2022/07/04 15:05:40;;;;;;;0.60;0.50;;;30.40;50.70;;;;;;4955257;29;20458;-70
2022/07/04 15:08:07;;;;;;;0.90;0.60;;;30.60;51.20;;;;;;4955240;29;20494;-75
2022/07/04 15:10:33;;;;;;;0.70;0.50;;;30.60;50.50;;;;;;4955152;29;20447;-75
2022/07/04 15:13:00;;;;;;;0.70;0.60;;;30.70;49.90;;;;;;4955705;29;20494;-74
2022/07/04 15:15:27;;;;;;;0.70;0.60;;;30.90;49.10;;;;;;4978063;23;20837;-74
2022/07/04 15:17:55;;;;;;;0.70;0.60;;;31.00;49.30;;;;;;4954768;29;21069;-74
2022/07/04 15:25:50;;;;;;;0.87;0.60;;;31.40;47.90;;;;;;4955127;29;20451;-74
2022/07/04 15:28:16;;;;;;;0.70;0.60;;;31.30;48.50;;;;;;4955112;29;20447;-73
2022/07/04 15:30:43;;;;;;;0.67;0.57;;;31.40;48.70;;;;;;4955042;29;20454;-73
2022/07/04 15:33:14;;;;;;;0.80;0.60;;;31.40;48.80;;;;;;4955015;29;20451;-73
2022/07/04 15:35:41;;;;;;;0.70;0.60;;;31.20;49.30;;;;;;4955018;29;20526;-73
2022/07/04 15:38:08;;;;;;;0.70;0.67;;;30.80;49.10;;;;;;4954971;28;20579;-74
2022/07/04 15:40:35;;;;;;;0.70;0.60;;;30.90;49.20;;;;;;4954961;29;20502;-72
2022/07/04 15:43:01;;;;;;;1.43;0.60;;;31.00;50.50;;;;;;4954668;29;20940;-73
2022/07/04 15:45:28;;;;;;;0.70;0.60;;;31.10;49.40;;;;;;4954939;29;20542;-73
2022/07/04 15:47:55;;;;;;;1.10;0.60;;;31.10;49.80;;;;;;4954957;29;20473;-71
2022/07/04 15:50:24;;;;;;;0.70;0.50;;;31.20;48.10;;;;;;4955052;29;20457;-73
2022/07/04 15:52:51;;;;;;;0.70;0.60;;;31.20;48.40;;;;;;4954913;29;20450;-72
2022/07/04 15:55:17;;;;;;;1.67;0.60;;;31.20;49.50;;;;;;4954774;29;20471;-73
2022/07/04 15:57:44;;;;;;;0.80;0.60;;;31.20;48.20;;;;;;4954738;29;20443;-72
2022/07/04 16:00:12;;;;;;;0.87;0.63;;;30.90;48.60;;;;;;4954894;29;20498;-72
2022/07/04 16:02:38;;;;;;;0.90;0.70;;;30.50;49.80;;;;;;4954834;28;20463;-73
2022/07/04 16:05:07;;;;;;;0.73;0.60;;;30.30;50.20;;;;;;4954426;29;20899;-74
2022/07/04 16:07:35;;;;;;;0.80;0.60;;;30.00;50.60;;;;;;4954766;29;20525;-74
2022/07/04 16:10:02;;;;;;;0.70;0.60;;;29.90;49.90;;;;;;4954696;29;20453;-73
2022/07/04 16:12:29;;;;;;;0.80;0.60;;;29.70;51.20;;;;;;4956711;28;20506;-72